sensor_id;sensor_type;location;lat;lon;timestamp;P1;durP1;ratioP1;P2;durP2;ratioP2
36441;SDS011;73131;50.820;16.274;2023-12-28T00:01:06;6.53;;;4.25;;
36441;SDS011;73131;50.820;16.274;2023-12-28T00:04:15;10.07;;;4.38;;
36441;SDS011;73131;50.820;16.274;2023-12-28T00:07:16;8.65;;;4.03;;
36441;SDS011;73131;50.820;16.274;2023-12-28T00:10:17;5.88;;;3.13;;
36441;SDS011;73131;50.820;16.274;2023-12-28T00:13:21;8.95;;;3.70;;
36441;SDS011;73131;50.820;16.274;2023-12-28T00:16:26;6.57;;;4.30;;
36441;SDS011;73131;50.820;16.274;2023-12-28T00:19:28;6.05;;;3.80;;
36441;SDS011;73131;50.820;16.274;2023-12-28T00:22:29;7.30;;;4.15;;
36441;SDS011;73131;50.820;16.274;2023-12-28T00:25:30;6.55;;;4.10;;
36441;SDS011;73131;50.820;16.274;2023-12-28T00:28:33;10.43;;;4.30;;
36441;SDS011;73131;50.820;16.274;2023-12-28T00:31:34;8.77;;;4.35;;
36441;SDS011;73131;50.820;16.274;2023-12-28T00:34:35;6.72;;;4.15;;
36441;SDS011;73131;50.820;16.274;2023-12-28T00:37:37;10.70;;;4.60;;
36441;SDS011;73131;50.820;16.274;2023-12-28T00:40:39;9.07;;;4.55;;
36441;SDS011;73131;50.820;16.274;2023-12-28T00:43:40;6.68;;;3.60;;
36441;SDS011;73131;50.820;16.274;2023-12-28T00:46:43;6.75;;;3.33;;
36441;SDS011;73131;50.820;16.274;2023-12-28T00:49:46;6.05;;;3.38;;
36441;SDS011;73131;50.820;16.274;2023-12-28T00:52:47;4.30;;;3.05;;
36441;SDS011;73131;50.820;16.274;2023-12-28T00:55:48;6.30;;;2.75;;
36441;SDS011;73131;50.820;16.274;2023-12-28T00:58:52;5.82;;;2.90;;
36441;SDS011;73131;50.820;16.274;2023-12-28T01:01:53;4.15;;;2.20;;
36441;SDS011;73131;50.820;16.274;2023-12-28T01:04:54;3.58;;;2.22;;
36441;SDS011;73131;50.820;16.274;2023-12-28T01:07:55;4.10;;;2.47;;
36441;SDS011;73131;50.820;16.274;2023-12-28T01:10:56;4.85;;;2.13;;
36441;SDS011;73131;50.820;16.274;2023-12-28T01:13:59;3.72;;;2.03;;
36441;SDS011;73131;50.820;16.274;2023-12-28T01:17:03;3.08;;;2.13;;
36441;SDS011;73131;50.820;16.274;2023-12-28T01:20:06;4.43;;;1.92;;
36441;SDS011;73131;50.820;16.274;2023-12-28T01:23:08;2.60;;;2.00;;
36441;SDS011;73131;50.820;16.274;2023-12-28T01:26:12;3.78;;;2.05;;
36441;SDS011;73131;50.820;16.274;2023-12-28T01:29:20;2.00;;;1.35;;
36441;SDS011;73131;50.820;16.274;2023-12-28T01:32:21;2.50;;;1.60;;
36441;SDS011;73131;50.820;16.274;2023-12-28T01:35:24;4.88;;;2.20;;
36441;SDS011;73131;50.820;16.274;2023-12-28T01:38:25;3.53;;;2.00;;
36441;SDS011;73131;50.820;16.274;2023-12-28T01:41:26;2.00;;;1.45;;
36441;SDS011;73131;50.820;16.274;2023-12-28T01:44:32;2.40;;;1.63;;
36441;SDS011;73131;50.820;16.274;2023-12-28T01:47:33;4.28;;;1.80;;
36441;SDS011;73131;50.820;16.274;2023-12-28T01:50:34;4.40;;;1.50;;
36441;SDS011;73131;50.820;16.274;2023-12-28T01:53:36;3.13;;;1.73;;
36441;SDS011;73131;50.820;16.274;2023-12-28T01:56:40;2.13;;;1.52;;
36441;SDS011;73131;50.820;16.274;2023-12-28T01:59:43;3.38;;;2.28;;
36441;SDS011;73131;50.820;16.274;2023-12-28T02:02:45;3.90;;;2.42;;
36441;SDS011;73131;50.820;16.274;2023-12-28T02:05:47;3.10;;;2.00;;
36441;SDS011;73131;50.820;16.274;2023-12-28T02:08:51;4.18;;;2.10;;
36441;SDS011;73131;50.820;16.274;2023-12-28T02:11:54;4.68;;;2.30;;
36441;SDS011;73131;50.820;16.274;2023-12-28T02:14:58;3.30;;;1.92;;
36441;SDS011;73131;50.820;16.274;2023-12-28T02:18:04;5.00;;;1.80;;
36441;SDS011;73131;50.820;16.274;2023-12-28T02:21:15;3.83;;;2.05;;
36441;SDS011;73131;50.820;16.274;2023-12-28T02:24:17;3.42;;;1.85;;
36441;SDS011;73131;50.820;16.274;2023-12-28T02:27:18;3.72;;;2.03;;
36441;SDS011;73131;50.820;16.274;2023-12-28T02:30:22;3.70;;;2.20;;
36441;SDS011;73131;50.820;16.274;2023-12-28T02:33:26;3.58;;;1.95;;
36441;SDS011;73131;50.820;16.274;2023-12-28T02:36:34;3.35;;;2.00;;
36441;SDS011;73131;50.820;16.274;2023-12-28T02:39:37;4.40;;;2.55;;
36441;SDS011;73131;50.820;16.274;2023-12-28T02:42:39;4.07;;;1.73;;
36441;SDS011;73131;50.820;16.274;2023-12-28T02:45:40;4.63;;;1.92;;
36441;SDS011;73131;50.820;16.274;2023-12-28T02:48:46;4.43;;;2.25;;
36441;SDS011;73131;50.820;16.274;2023-12-28T02:51:50;6.28;;;2.60;;
36441;SDS011;73131;50.820;16.274;2023-12-28T02:54:51;5.55;;;2.88;;
36441;SDS011;73131;50.820;16.274;2023-12-28T02:57:54;4.43;;;2.03;;
36441;SDS011;73131;50.820;16.274;2023-12-28T03:00:58;6.32;;;2.78;;
36441;SDS011;73131;50.820;16.274;2023-12-28T03:03:59;4.25;;;2.13;;
36441;SDS011;73131;50.820;16.274;2023-12-28T03:07:00;4.40;;;2.83;;
36441;SDS011;73131;50.820;16.274;2023-12-28T03:10:02;3.08;;;2.30;;
36441;SDS011;73131;50.820;16.274;2023-12-28T03:13:05;4.85;;;3.00;;
36441;SDS011;73131;50.820;16.274;2023-12-28T03:16:07;4.63;;;2.35;;
36441;SDS011;73131;50.820;16.274;2023-12-28T03:19:07;6.35;;;2.80;;
36441;SDS011;73131;50.820;16.274;2023-12-28T03:22:13;4.25;;;2.50;;
36441;SDS011;73131;50.820;16.274;2023-12-28T03:25:15;3.97;;;2.97;;
36441;SDS011;73131;50.820;16.274;2023-12-28T03:28:19;2.72;;;2.25;;
36441;SDS011;73131;50.820;16.274;2023-12-28T03:31:22;4.10;;;2.72;;
36441;SDS011;73131;50.820;16.274;2023-12-28T03:34:23;2.75;;;1.65;;
36441;SDS011;73131;50.820;16.274;2023-12-28T03:37:28;3.55;;;2.00;;
36441;SDS011;73131;50.820;16.274;2023-12-28T03:40:32;3.70;;;1.70;;
36441;SDS011;73131;50.820;16.274;2023-12-28T03:43:33;2.65;;;1.73;;
36441;SDS011;73131;50.820;16.274;2023-12-28T03:46:34;3.25;;;1.58;;
36441;SDS011;73131;50.820;16.274;2023-12-28T03:49:35;5.78;;;2.20;;
36441;SDS011;73131;50.820;16.274;2023-12-28T03:52:38;3.67;;;1.70;;
36441;SDS011;73131;50.820;16.274;2023-12-28T03:55:39;4.47;;;1.90;;
36441;SDS011;73131;50.820;16.274;2023-12-28T03:58:40;3.65;;;1.38;;
36441;SDS011;73131;50.820;16.274;2023-12-28T04:01:41;4.82;;;1.85;;
36441;SDS011;73131;50.820;16.274;2023-12-28T04:04:42;2.75;;;1.65;;
36441;SDS011;73131;50.820;16.274;2023-12-28T04:07:45;2.95;;;2.00;;
36441;SDS011;73131;50.820;16.274;2023-12-28T04:10:46;4.05;;;2.00;;
36441;SDS011;73131;50.820;16.274;2023-12-28T04:13:49;4.88;;;1.98;;
36441;SDS011;73131;50.820;16.274;2023-12-28T04:16:53;3.78;;;1.92;;
36441;SDS011;73131;50.820;16.274;2023-12-28T04:19:54;3.83;;;1.73;;
36441;SDS011;73131;50.820;16.274;2023-12-28T04:22:57;4.57;;;2.33;;
36441;SDS011;73131;50.820;16.274;2023-12-28T04:25:58;4.00;;;2.13;;
36441;SDS011;73131;50.820;16.274;2023-12-28T04:28:59;6.05;;;2.63;;
36441;SDS011;73131;50.820;16.274;2023-12-28T04:32:00;3.88;;;2.35;;
36441;SDS011;73131;50.820;16.274;2023-12-28T04:35:06;3.70;;;2.70;;
36441;SDS011;73131;50.820;16.274;2023-12-28T04:38:08;5.47;;;2.20;;
36441;SDS011;73131;50.820;16.274;2023-12-28T04:41:12;4.25;;;2.25;;
36441;SDS011;73131;50.820;16.274;2023-12-28T04:44:13;4.95;;;2.20;;
36441;SDS011;73131;50.820;16.274;2023-12-28T04:47:14;5.38;;;2.08;;
36441;SDS011;73131;50.820;16.274;2023-12-28T04:50:19;2.92;;;1.73;;
36441;SDS011;73131;50.820;16.274;2023-12-28T04:53:25;5.28;;;2.90;;
36441;SDS011;73131;50.820;16.274;2023-12-28T04:56:26;4.18;;;2.25;;
36441;SDS011;73131;50.820;16.274;2023-12-28T04:59:29;3.15;;;2.10;;
36441;SDS011;73131;50.820;16.274;2023-12-28T05:02:35;5.85;;;2.75;;
36441;SDS011;73131;50.820;16.274;2023-12-28T05:05:36;4.45;;;1.90;;
36441;SDS011;73131;50.820;16.274;2023-12-28T05:08:37;3.63;;;1.98;;
36441;SDS011;73131;50.820;16.274;2023-12-28T05:11:38;5.25;;;2.28;;
36441;SDS011;73131;50.820;16.274;2023-12-28T05:14:41;3.25;;;2.15;;
36441;SDS011;73131;50.820;16.274;2023-12-28T05:17:42;4.85;;;2.40;;
36441;SDS011;73131;50.820;16.274;2023-12-28T05:20:43;3.13;;;2.03;;
36441;SDS011;73131;50.820;16.274;2023-12-28T05:23:45;2.55;;;1.92;;
36441;SDS011;73131;50.820;16.274;2023-12-28T05:26:45;4.68;;;2.58;;
36441;SDS011;73131;50.820;16.274;2023-12-28T05:29:49;3.95;;;2.28;;
36441;SDS011;73131;50.820;16.274;2023-12-28T05:32:53;3.75;;;2.28;;
36441;SDS011;73131;50.820;16.274;2023-12-28T05:35:54;5.43;;;2.50;;
36441;SDS011;73131;50.820;16.274;2023-12-28T05:38:55;4.68;;;2.17;;
36441;SDS011;73131;50.820;16.274;2023-12-28T05:41:56;3.95;;;2.08;;
36441;SDS011;73131;50.820;16.274;2023-12-28T05:44:57;3.40;;;2.10;;
36441;SDS011;73131;50.820;16.274;2023-12-28T05:47:58;3.53;;;2.00;;
36441;SDS011;73131;50.820;16.274;2023-12-28T05:51:03;3.88;;;1.95;;
36441;SDS011;73131;50.820;16.274;2023-12-28T05:54:09;4.40;;;2.85;;
36441;SDS011;73131;50.820;16.274;2023-12-28T05:57:10;3.95;;;2.60;;
36441;SDS011;73131;50.820;16.274;2023-12-28T06:00:12;4.68;;;2.05;;
36441;SDS011;73131;50.820;16.274;2023-12-28T06:03:14;4.50;;;3.05;;
36441;SDS011;73131;50.820;16.274;2023-12-28T06:06:17;4.57;;;2.88;;
36441;SDS011;73131;50.820;16.274;2023-12-28T06:09:18;4.07;;;2.35;;
36441;SDS011;73131;50.820;16.274;2023-12-28T06:12:22;3.63;;;2.10;;
36441;SDS011;73131;50.820;16.274;2023-12-28T06:15:23;4.50;;;2.10;;
36441;SDS011;73131;50.820;16.274;2023-12-28T06:18:29;6.13;;;2.95;;
36441;SDS011;73131;50.820;16.274;2023-12-28T06:21:32;4.32;;;2.28;;
36441;SDS011;73131;50.820;16.274;2023-12-28T06:24:41;3.67;;;2.35;;
36441;SDS011;73131;50.820;16.274;2023-12-28T06:27:44;5.55;;;2.50;;
36441;SDS011;73131;50.820;16.274;2023-12-28T06:30:45;4.63;;;2.15;;
36441;SDS011;73131;50.820;16.274;2023-12-28T06:33:48;5.25;;;2.35;;
36441;SDS011;73131;50.820;16.274;2023-12-28T06:36:52;6.03;;;2.40;;
36441;SDS011;73131;50.820;16.274;2023-12-28T06:39:53;4.22;;;2.35;;
36441;SDS011;73131;50.820;16.274;2023-12-28T06:42:54;6.05;;;2.38;;
36441;SDS011;73131;50.820;16.274;2023-12-28T06:45:55;4.80;;;2.28;;
36441;SDS011;73131;50.820;16.274;2023-12-28T06:48:58;3.95;;;2.05;;
36441;SDS011;73131;50.820;16.274;2023-12-28T06:51:59;5.78;;;2.10;;
36441;SDS011;73131;50.820;16.274;2023-12-28T06:55:00;2.75;;;2.05;;
36441;SDS011;73131;50.820;16.274;2023-12-28T06:58:01;2.60;;;1.52;;
36441;SDS011;73131;50.820;16.274;2023-12-28T07:01:06;6.32;;;2.67;;
36441;SDS011;73131;50.820;16.274;2023-12-28T07:04:07;3.40;;;2.20;;
36441;SDS011;73131;50.820;16.274;2023-12-28T07:07:08;5.15;;;2.63;;
36441;SDS011;73131;50.820;16.274;2023-12-28T07:10:10;9.13;;;2.33;;
36441;SDS011;73131;50.820;16.274;2023-12-28T07:13:14;4.60;;;3.00;;
36441;SDS011;73131;50.820;16.274;2023-12-28T07:16:17;4.85;;;2.75;;
36441;SDS011;73131;50.820;16.274;2023-12-28T07:19:20;3.80;;;2.50;;
36441;SDS011;73131;50.820;16.274;2023-12-28T07:22:23;4.28;;;2.65;;
36441;SDS011;73131;50.820;16.274;2023-12-28T07:25:29;5.57;;;2.80;;
36441;SDS011;73131;50.820;16.274;2023-12-28T07:28:32;5.95;;;3.05;;
36441;SDS011;73131;50.820;16.274;2023-12-28T07:31:36;5.70;;;2.70;;
36441;SDS011;73131;50.820;16.274;2023-12-28T07:34:37;4.88;;;2.50;;
36441;SDS011;73131;50.820;16.274;2023-12-28T07:37:38;4.22;;;2.33;;
36441;SDS011;73131;50.820;16.274;2023-12-28T07:40:39;4.65;;;2.65;;
36441;SDS011;73131;50.820;16.274;2023-12-28T07:43:41;8.32;;;3.88;;
36441;SDS011;73131;50.820;16.274;2023-12-28T07:46:41;6.40;;;2.80;;
36441;SDS011;73131;50.820;16.274;2023-12-28T07:49:48;3.70;;;2.67;;
36441;SDS011;73131;50.820;16.274;2023-12-28T07:52:49;4.95;;;2.33;;
36441;SDS011;73131;50.820;16.274;2023-12-28T07:55:50;4.65;;;2.95;;
36441;SDS011;73131;50.820;16.274;2023-12-28T07:58:56;5.70;;;2.58;;
36441;SDS011;73131;50.820;16.274;2023-12-28T08:01:57;3.13;;;2.10;;
36441;SDS011;73131;50.820;16.274;2023-12-28T08:04:58;4.20;;;2.60;;
36441;SDS011;73131;50.820;16.274;2023-12-28T08:08:02;5.60;;;3.35;;
36441;SDS011;73131;50.820;16.274;2023-12-28T08:11:05;5.40;;;3.40;;
36441;SDS011;73131;50.820;16.274;2023-12-28T08:14:09;6.20;;;2.65;;
36441;SDS011;73131;50.820;16.274;2023-12-28T08:17:12;4.82;;;2.97;;
36441;SDS011;73131;50.820;16.274;2023-12-28T08:20:13;4.32;;;2.33;;
36441;SDS011;73131;50.820;16.274;2023-12-28T08:23:16;4.03;;;2.20;;
36441;SDS011;73131;50.820;16.274;2023-12-28T08:26:18;3.58;;;2.42;;
36441;SDS011;73131;50.820;16.274;2023-12-28T08:29:21;3.35;;;2.30;;
36441;SDS011;73131;50.820;16.274;2023-12-28T08:32:24;4.13;;;2.08;;
36441;SDS011;73131;50.820;16.274;2023-12-28T08:35:25;3.90;;;2.17;;
36441;SDS011;73131;50.820;16.274;2023-12-28T08:38:29;5.78;;;3.15;;
36441;SDS011;73131;50.820;16.274;2023-12-28T08:41:29;4.53;;;2.20;;
36441;SDS011;73131;50.820;16.274;2023-12-28T08:44:31;4.10;;;2.10;;
36441;SDS011;73131;50.820;16.274;2023-12-28T08:47:33;5.95;;;2.65;;
36441;SDS011;73131;50.820;16.274;2023-12-28T08:50:36;5.10;;;2.42;;
36441;SDS011;73131;50.820;16.274;2023-12-28T08:53:42;6.43;;;3.80;;
36441;SDS011;73131;50.820;16.274;2023-12-28T08:56:43;5.53;;;2.78;;
36441;SDS011;73131;50.820;16.274;2023-12-28T08:59:48;8.00;;;3.15;;
36441;SDS011;73131;50.820;16.274;2023-12-28T09:02:52;6.40;;;2.95;;
36441;SDS011;73131;50.820;16.274;2023-12-28T09:05:55;4.70;;;2.72;;
36441;SDS011;73131;50.820;16.274;2023-12-28T09:08:57;6.38;;;3.45;;
36441;SDS011;73131;50.820;16.274;2023-12-28T09:11:58;6.53;;;3.45;;
36441;SDS011;73131;50.820;16.274;2023-12-28T09:15:02;6.63;;;2.78;;
36441;SDS011;73131;50.820;16.274;2023-12-28T09:18:05;5.60;;;3.17;;
36441;SDS011;73131;50.820;16.274;2023-12-28T09:21:09;6.82;;;3.15;;
36441;SDS011;73131;50.820;16.274;2023-12-28T09:24:10;6.97;;;3.55;;
36441;SDS011;73131;50.820;16.274;2023-12-28T09:27:11;7.47;;;4.15;;
36441;SDS011;73131;50.820;16.274;2023-12-28T09:30:12;9.10;;;4.00;;
36441;SDS011;73131;50.820;16.274;2023-12-28T09:33:16;7.60;;;4.03;;
36441;SDS011;73131;50.820;16.274;2023-12-28T09:36:25;6.53;;;3.65;;
36441;SDS011;73131;50.820;16.274;2023-12-28T09:39:28;5.10;;;3.00;;
36441;SDS011;73131;50.820;16.274;2023-12-28T09:42:32;5.28;;;2.72;;
36441;SDS011;73131;50.820;16.274;2023-12-28T09:45:40;7.93;;;4.65;;
36441;SDS011;73131;50.820;16.274;2023-12-28T09:48:43;6.15;;;3.17;;
36441;SDS011;73131;50.820;16.274;2023-12-28T09:51:47;5.25;;;3.40;;
36441;SDS011;73131;50.820;16.274;2023-12-28T09:54:48;5.20;;;3.08;;
36441;SDS011;73131;50.820;16.274;2023-12-28T09:57:52;4.75;;;3.20;;
36441;SDS011;73131;50.820;16.274;2023-12-28T10:00:55;5.75;;;2.92;;
36441;SDS011;73131;50.820;16.274;2023-12-28T10:03:59;5.68;;;3.08;;
36441;SDS011;73131;50.820;16.274;2023-12-28T10:07:04;4.75;;;2.33;;
36441;SDS011;73131;50.820;16.274;2023-12-28T10:10:05;4.93;;;2.97;;
36441;SDS011;73131;50.820;16.274;2023-12-28T10:13:07;4.30;;;2.65;;
36441;SDS011;73131;50.820;16.274;2023-12-28T10:16:15;7.28;;;3.35;;
36441;SDS011;73131;50.820;16.274;2023-12-28T10:19:20;3.47;;;2.25;;
36441;SDS011;73131;50.820;16.274;2023-12-28T10:22:25;5.50;;;2.72;;
36441;SDS011;73131;50.820;16.274;2023-12-28T10:25:30;4.95;;;2.30;;
36441;SDS011;73131;50.820;16.274;2023-12-28T10:28:36;4.38;;;2.90;;
36441;SDS011;73131;50.820;16.274;2023-12-28T10:31:41;4.10;;;2.40;;
36441;SDS011;73131;50.820;16.274;2023-12-28T10:34:51;3.50;;;2.15;;
36441;SDS011;73131;50.820;16.274;2023-12-28T10:37:55;5.22;;;2.70;;
36441;SDS011;73131;50.820;16.274;2023-12-28T10:41:00;3.88;;;2.80;;
36441;SDS011;73131;50.820;16.274;2023-12-28T10:44:03;4.90;;;2.63;;
36441;SDS011;73131;50.820;16.274;2023-12-28T10:47:05;4.57;;;2.42;;
36441;SDS011;73131;50.820;16.274;2023-12-28T10:50:18;5.25;;;3.33;;
36441;SDS011;73131;50.820;16.274;2023-12-28T10:56:46;9.90;;;4.03;;
36441;SDS011;73131;50.820;16.274;2023-12-28T11:03:02;7.18;;;3.97;;
36441;SDS011;73131;50.820;16.274;2023-12-28T11:06:09;6.50;;;3.63;;
36441;SDS011;73131;50.820;16.274;2023-12-28T11:09:12;5.53;;;3.40;;
36441;SDS011;73131;50.820;16.274;2023-12-28T11:12:18;7.82;;;4.22;;
36441;SDS011;73131;50.820;16.274;2023-12-28T11:15:20;9.30;;;4.45;;
36441;SDS011;73131;50.820;16.274;2023-12-28T11:18:24;7.25;;;3.60;;
36441;SDS011;73131;50.820;16.274;2023-12-28T11:21:28;6.10;;;3.35;;
36441;SDS011;73131;50.820;16.274;2023-12-28T11:24:34;5.20;;;3.22;;
36441;SDS011;73131;50.820;16.274;2023-12-28T11:27:36;5.80;;;3.03;;
36441;SDS011;73131;50.820;16.274;2023-12-28T11:30:41;5.68;;;3.30;;
36441;SDS011;73131;50.820;16.274;2023-12-28T11:33:45;7.63;;;3.53;;
36441;SDS011;73131;50.820;16.274;2023-12-28T11:36:51;7.28;;;3.78;;
36441;SDS011;73131;50.820;16.274;2023-12-28T11:39:55;4.28;;;2.60;;
36441;SDS011;73131;50.820;16.274;2023-12-28T11:43:02;5.90;;;3.10;;
36441;SDS011;73131;50.820;16.274;2023-12-28T11:46:03;5.97;;;3.38;;
36441;SDS011;73131;50.820;16.274;2023-12-28T11:49:07;6.72;;;3.65;;
36441;SDS011;73131;50.820;16.274;2023-12-28T11:52:21;6.43;;;3.42;;
36441;SDS011;73131;50.820;16.274;2023-12-28T11:55:29;7.82;;;3.83;;
36441;SDS011;73131;50.820;16.274;2023-12-28T11:58:30;7.72;;;4.35;;
36441;SDS011;73131;50.820;16.274;2023-12-28T12:01:34;5.72;;;2.90;;
36441;SDS011;73131;50.820;16.274;2023-12-28T12:04:35;4.55;;;2.55;;
36441;SDS011;73131;50.820;16.274;2023-12-28T12:07:36;4.93;;;3.08;;
36441;SDS011;73131;50.820;16.274;2023-12-28T12:10:37;5.57;;;3.08;;
36441;SDS011;73131;50.820;16.274;2023-12-28T12:13:38;5.95;;;3.33;;
36441;SDS011;73131;50.820;16.274;2023-12-28T12:16:40;5.80;;;3.30;;
36441;SDS011;73131;50.820;16.274;2023-12-28T12:19:44;6.40;;;3.58;;
36441;SDS011;73131;50.820;16.274;2023-12-28T12:25:50;7.28;;;3.45;;
36441;SDS011;73131;50.820;16.274;2023-12-28T12:28:52;5.85;;;3.25;;
36441;SDS011;73131;50.820;16.274;2023-12-28T12:31:58;4.95;;;3.20;;
36441;SDS011;73131;50.820;16.274;2023-12-28T12:35:01;7.22;;;3.38;;
36441;SDS011;73131;50.820;16.274;2023-12-28T12:38:06;5.82;;;3.42;;
36441;SDS011;73131;50.820;16.274;2023-12-28T12:41:07;5.38;;;3.40;;
36441;SDS011;73131;50.820;16.274;2023-12-28T12:44:10;6.20;;;3.47;;
36441;SDS011;73131;50.820;16.274;2023-12-28T12:47:12;4.60;;;2.45;;
36441;SDS011;73131;50.820;16.274;2023-12-28T12:50:16;7.00;;;3.25;;
36441;SDS011;73131;50.820;16.274;2023-12-28T12:53:18;10.77;;;4.53;;
36441;SDS011;73131;50.820;16.274;2023-12-28T12:56:21;6.78;;;3.47;;
36441;SDS011;73131;50.820;16.274;2023-12-28T12:59:22;7.40;;;3.88;;
36441;SDS011;73131;50.820;16.274;2023-12-28T13:02:28;8.18;;;4.25;;
36441;SDS011;73131;50.820;16.274;2023-12-28T13:05:29;6.93;;;3.60;;
36441;SDS011;73131;50.820;16.274;2023-12-28T13:08:31;7.70;;;3.60;;
36441;SDS011;73131;50.820;16.274;2023-12-28T13:11:33;6.07;;;3.20;;
36441;SDS011;73131;50.820;16.274;2023-12-28T13:14:36;6.30;;;3.55;;
36441;SDS011;73131;50.820;16.274;2023-12-28T13:17:37;6.97;;;3.40;;
36441;SDS011;73131;50.820;16.274;2023-12-28T13:20:43;9.02;;;3.33;;
36441;SDS011;73131;50.820;16.274;2023-12-28T13:23:48;7.00;;;3.58;;
36441;SDS011;73131;50.820;16.274;2023-12-28T13:26:49;5.13;;;2.70;;
36441;SDS011;73131;50.820;16.274;2023-12-28T13:29:52;6.47;;;4.00;;
36441;SDS011;73131;50.820;16.274;2023-12-28T13:32:54;10.02;;;4.60;;
36441;SDS011;73131;50.820;16.274;2023-12-28T13:35:56;6.60;;;3.13;;
36441;SDS011;73131;50.820;16.274;2023-12-28T13:38:58;9.68;;;4.25;;
36441;SDS011;73131;50.820;16.274;2023-12-28T13:41:59;7.40;;;3.63;;
36441;SDS011;73131;50.820;16.274;2023-12-28T13:45:00;8.15;;;4.30;;
36441;SDS011;73131;50.820;16.274;2023-12-28T13:48:04;8.23;;;4.38;;
36441;SDS011;73131;50.820;16.274;2023-12-28T13:51:09;13.88;;;5.43;;
36441;SDS011;73131;50.820;16.274;2023-12-28T13:54:13;10.48;;;4.60;;
36441;SDS011;73131;50.820;16.274;2023-12-28T13:57:14;9.48;;;4.25;;
36441;SDS011;73131;50.820;16.274;2023-12-28T14:00:20;6.85;;;3.92;;
36441;SDS011;73131;50.820;16.274;2023-12-28T14:03:23;10.32;;;4.90;;
36441;SDS011;73131;50.820;16.274;2023-12-28T14:06:25;7.97;;;4.63;;
36441;SDS011;73131;50.820;16.274;2023-12-28T14:09:26;8.70;;;4.60;;
36441;SDS011;73131;50.820;16.274;2023-12-28T14:12:29;10.73;;;4.30;;
36441;SDS011;73131;50.820;16.274;2023-12-28T14:15:30;9.02;;;4.68;;
36441;SDS011;73131;50.820;16.274;2023-12-28T14:18:31;7.55;;;4.38;;
36441;SDS011;73131;50.820;16.274;2023-12-28T14:21:38;11.00;;;4.72;;
36441;SDS011;73131;50.820;16.274;2023-12-28T14:24:39;10.52;;;5.20;;
36441;SDS011;73131;50.820;16.274;2023-12-28T14:27:41;8.23;;;4.07;;
36441;SDS011;73131;50.820;16.274;2023-12-28T14:30:42;9.90;;;4.30;;
36441;SDS011;73131;50.820;16.274;2023-12-28T14:33:44;7.05;;;3.80;;
36441;SDS011;73131;50.820;16.274;2023-12-28T14:36:48;8.40;;;4.68;;
36441;SDS011;73131;50.820;16.274;2023-12-28T14:39:52;11.02;;;5.40;;
36441;SDS011;73131;50.820;16.274;2023-12-28T14:42:53;10.60;;;4.65;;
36441;SDS011;73131;50.820;16.274;2023-12-28T14:45:54;8.82;;;5.22;;
36441;SDS011;73131;50.820;16.274;2023-12-28T14:48:58;8.45;;;4.93;;
36441;SDS011;73131;50.820;16.274;2023-12-28T14:52:06;8.13;;;4.68;;
36441;SDS011;73131;50.820;16.274;2023-12-28T14:55:08;8.45;;;4.88;;
36441;SDS011;73131;50.820;16.274;2023-12-28T14:58:09;11.82;;;5.15;;
36441;SDS011;73131;50.820;16.274;2023-12-28T15:01:17;10.82;;;5.25;;
36441;SDS011;73131;50.820;16.274;2023-12-28T15:04:20;13.75;;;7.63;;
36441;SDS011;73131;50.820;16.274;2023-12-28T15:07:21;9.50;;;5.38;;
36441;SDS011;73131;50.820;16.274;2023-12-28T15:10:23;8.60;;;4.80;;
36441;SDS011;73131;50.820;16.274;2023-12-28T15:13:29;7.82;;;3.83;;
36441;SDS011;73131;50.820;16.274;2023-12-28T15:16:31;10.57;;;4.45;;
36441;SDS011;73131;50.820;16.274;2023-12-28T15:19:32;8.95;;;4.70;;
36441;SDS011;73131;50.820;16.274;2023-12-28T15:22:34;7.55;;;4.00;;
36441;SDS011;73131;50.820;16.274;2023-12-28T15:25:42;7.60;;;4.20;;
36441;SDS011;73131;50.820;16.274;2023-12-28T15:28:47;8.88;;;4.43;;
36441;SDS011;73131;50.820;16.274;2023-12-28T15:31:50;8.20;;;4.65;;
36441;SDS011;73131;50.820;16.274;2023-12-28T15:34:51;7.82;;;5.22;;
36441;SDS011;73131;50.820;16.274;2023-12-28T15:37:54;8.95;;;5.25;;
36441;SDS011;73131;50.820;16.274;2023-12-28T15:40:58;10.30;;;5.35;;
36441;SDS011;73131;50.820;16.274;2023-12-28T15:43:59;6.50;;;3.47;;
36441;SDS011;73131;50.820;16.274;2023-12-28T15:47:00;8.15;;;4.40;;
36441;SDS011;73131;50.820;16.274;2023-12-28T15:50:01;8.18;;;4.85;;
36441;SDS011;73131;50.820;16.274;2023-12-28T15:53:03;9.80;;;4.78;;
36441;SDS011;73131;50.820;16.274;2023-12-28T15:56:05;11.82;;;5.18;;
36441;SDS011;73131;50.820;16.274;2023-12-28T15:59:06;11.18;;;5.03;;
36441;SDS011;73131;50.820;16.274;2023-12-28T16:02:07;8.23;;;4.72;;
36441;SDS011;73131;50.820;16.274;2023-12-28T16:05:08;11.50;;;5.63;;
36441;SDS011;73131;50.820;16.274;2023-12-28T16:08:09;9.95;;;5.40;;
36441;SDS011;73131;50.820;16.274;2023-12-28T16:11:10;8.38;;;4.57;;
36441;SDS011;73131;50.820;16.274;2023-12-28T16:14:13;10.77;;;5.60;;
36441;SDS011;73131;50.820;16.274;2023-12-28T16:17:19;8.10;;;4.97;;
36441;SDS011;73131;50.820;16.274;2023-12-28T16:20:20;8.02;;;4.45;;
36441;SDS011;73131;50.820;16.274;2023-12-28T16:23:22;8.52;;;4.25;;
36441;SDS011;73131;50.820;16.274;2023-12-28T16:26:24;8.52;;;4.18;;
36441;SDS011;73131;50.820;16.274;2023-12-28T16:29:25;7.97;;;3.97;;
36441;SDS011;73131;50.820;16.274;2023-12-28T16:32:26;6.13;;;4.25;;
36441;SDS011;73131;50.820;16.274;2023-12-28T16:35:27;7.88;;;3.90;;
36441;SDS011;73131;50.820;16.274;2023-12-28T16:38:30;5.60;;;3.70;;
36441;SDS011;73131;50.820;16.274;2023-12-28T16:41:34;6.22;;;3.28;;
36441;SDS011;73131;50.820;16.274;2023-12-28T16:44:40;5.40;;;3.33;;
36441;SDS011;73131;50.820;16.274;2023-12-28T16:50:44;5.63;;;3.40;;
36441;SDS011;73131;50.820;16.274;2023-12-28T16:53:45;4.82;;;3.35;;
36441;SDS011;73131;50.820;16.274;2023-12-28T16:56:48;4.35;;;2.97;;
36441;SDS011;73131;50.820;16.274;2023-12-28T16:59:49;6.68;;;3.15;;
36441;SDS011;73131;50.820;16.274;2023-12-28T17:02:53;6.57;;;3.50;;
36441;SDS011;73131;50.820;16.274;2023-12-28T17:05:59;7.85;;;2.60;;
36441;SDS011;73131;50.820;16.274;2023-12-28T17:09:03;5.30;;;3.25;;
36441;SDS011;73131;50.820;16.274;2023-12-28T17:12:30;4.75;;;3.22;;
36441;SDS011;73131;50.820;16.274;2023-12-28T17:15:42;6.45;;;3.05;;
36441;SDS011;73131;50.820;16.274;2023-12-28T17:18:48;4.75;;;2.80;;
36441;SDS011;73131;50.820;16.274;2023-12-28T17:21:49;5.50;;;3.17;;
36441;SDS011;73131;50.820;16.274;2023-12-28T17:25:00;5.15;;;3.10;;
36441;SDS011;73131;50.820;16.274;2023-12-28T17:28:19;4.90;;;2.80;;
36441;SDS011;73131;50.820;16.274;2023-12-28T17:31:24;4.57;;;3.35;;
36441;SDS011;73131;50.820;16.274;2023-12-28T17:34:29;5.50;;;2.78;;
36441;SDS011;73131;50.820;16.274;2023-12-28T17:37:33;4.50;;;3.22;;
36441;SDS011;73131;50.820;16.274;2023-12-28T17:40:37;5.65;;;3.30;;
36441;SDS011;73131;50.820;16.274;2023-12-28T17:44:00;5.10;;;3.30;;
36441;SDS011;73131;50.820;16.274;2023-12-28T17:47:02;5.57;;;3.55;;
36441;SDS011;73131;50.820;16.274;2023-12-28T17:50:10;5.70;;;3.50;;
36441;SDS011;73131;50.820;16.274;2023-12-28T17:53:11;6.22;;;3.60;;
36441;SDS011;73131;50.820;16.274;2023-12-28T17:56:13;6.78;;;3.63;;
36441;SDS011;73131;50.820;16.274;2023-12-28T17:59:18;6.70;;;3.35;;
36441;SDS011;73131;50.820;16.274;2023-12-28T18:02:19;7.78;;;3.90;;
36441;SDS011;73131;50.820;16.274;2023-12-28T18:05:20;6.50;;;3.72;;
36441;SDS011;73131;50.820;16.274;2023-12-28T18:08:21;5.45;;;2.80;;
36441;SDS011;73131;50.820;16.274;2023-12-28T18:11:22;5.15;;;3.45;;
36441;SDS011;73131;50.820;16.274;2023-12-28T18:14:24;5.70;;;3.88;;
36441;SDS011;73131;50.820;16.274;2023-12-28T18:17:25;5.18;;;3.03;;